Thursday, October 19, 2017, 2:18 PM EDT
Back to Local

KCXY, Harrisburg Capital City

Location: New Cumberland, PA, United States Lat: 40.217
Local Time: 2:18 PM EDT (18:18 GMT) Lon: -76.85
Time Zone: US/Eastern Elev: 347 ft

Show me the last for .
Show Decoded

2017-10-19 13:56 METAR KCXY 191756Z VRB03KT 10SM CLR 22/07 A3016 RMK AO2 SLP214 T02170072 10222
                 20072 58031 =
2017-10-19 12:56 METAR KCXY 191656Z 05004KT 10SM CLR 19/08 A3020 RMK AO2 SLP229 T01940078 =
2017-10-19 11:56 METAR KCXY 191556Z 07003KT 10SM CLR 18/08 A3023 RMK AO2 SLP237 T01780078 =
2017-10-19 10:56 METAR KCXY 191456Z 32004KT 10SM CLR 16/07 A3025 RMK AO2 SLP246 T01560067 50001 =
2017-10-19 09:56 METAR KCXY 191356Z 00000KT 10SM CLR 13/08 A3026 RMK AO2 SLP248 T01330078 =
2017-10-19 08:56 METAR KCXY 191256Z 00000KT 10SM CLR 10/08 A3026 RMK AO2 SLP248 T01000078 =
2017-10-19 07:56 METAR KCXY 191156Z 00000KT 10SM CLR 07/06 A3025 RMK AO2 SLP245 T00720056 10111
                 20061 58001 =
2017-10-19 06:56 METAR KCXY 191056Z 24003KT 10SM CLR 06/04 A3025 RMK AO2 SLP245 T00610044 =
2017-10-19 05:56 METAR KCXY 190956Z AUTO 00000KT 10SM CLR 07/05 A3026 RMK AO2 SLP247 T00670050 =
2017-10-19 04:56 METAR KCXY 190856Z AUTO 00000KT 10SM CLR 07/06 A3025 RMK AO2 SLP247 T00720056
                 58003 =
2017-10-19 03:56 METAR KCXY 190756Z AUTO 24003KT 10SM CLR 07/06 A3026 RMK AO2 SLP248 T00720056 =
2017-10-19 02:56 METAR KCXY 190656Z AUTO 00000KT 10SM CLR 08/07 A3026 RMK AO2 SLP248 T00830067 =
2017-10-19 01:56 METAR KCXY 190556Z AUTO 33004KT 10SM CLR 10/08 A3026 RMK AO2 SLP249 T01000078
                 10161 20083 56010 =
2017-10-19 00:56 METAR KCXY 190456Z AUTO 00000KT 10SM CLR 09/07 A3027 RMK AO2 SLP252 T00940072
                 402280044 =
2017-10-18 23:56 METAR KCXY 190356Z AUTO 00000KT 10SM CLR 09/07 A3028 RMK AO2 SLP256 T00940067 =
2017-10-18 22:56 METAR KCXY 190256Z AUTO 00000KT 10SM CLR 11/07 A3029 RMK AO2 SLP259 T01060067
                 53004 =
2017-10-18 21:56 METAR KCXY 190156Z AUTO 00000KT 10SM CLR 13/07 A3028 RMK AO2 SLP256 T01330067 =
2017-10-18 20:56 METAR KCXY 190056Z 25003KT 10SM CLR 14/06 A3029 RMK AO2 SLP258 T01440061 =
2017-10-18 19:56 METAR KCXY 182356Z 26004KT 10SM CLR 16/06 A3028 RMK AO2 SLP256 60000 T01610056
                 10228 20161 53006 =
2017-10-18 18:56 METAR KCXY 182256Z 21005KT 10SM CLR 17/05 A3027 RMK AO2 RAB28E52 SLP253 P0000
                 T01720050 =
2017-10-18 17:56 METAR KCXY 182156Z 19004KT 10SM CLR 20/05 A3026 RMK AO2 SLP249 T02000050 =
2017-10-18 16:56 METAR KCXY 182056Z 21006KT 10SM CLR 22/06 A3026 RMK AO2 SLP249 T02170056 56018 =
2017-10-18 15:56 METAR KCXY 181956Z 22006KT 10SM CLR 22/06 A3027 RMK AO2 SLP253 T02220056 =
2017-10-18 14:56 METAR KCXY 181856Z 21005KT 10SM CLR 22/06 A3029 RMK AO2 SLP260 T02220056 =

Support USWX by starting your Amazon purchase here.